Pagina principale
METAR-TAF:

METAR-TAF

Aeroporti :

Brookhaven Airport

Shirley, New York, Stati Uniti

latitudine: 40-49-18N, longitudine: 072-52-08W, altezza: 25 m

Osservazione

Il bollettino è stato emesso 7 minuti fa, alle 07:56 UTC
Vento 3 kt da nord
Temperature 15°C
Umidità 77%
Pressione 1016 hPa
Visibilità: 16.1 km
Cielo sereno

METAR: KHWV 240756Z AUTO 35003KT 10SM CLR 15/11 A3001 RMK AO2 SLP162 T01500111

Ora: 04:03 (08:03 UTC)


TAF: mancante

Osservazioni e previsioni meteorologiche di più di 4000 aeroporti (messaggi METAR e TAF).

Le stazioni disponibili sono rappresentate dai dischi gialli e rossi sulla carta.

Puntare il mouse per vedere il nome della stazione.

Clicca sopra per visualizzare le osservazioni e previsioni meteorologiche.

Per cambiare la mappa : fare clic sui pulsanti verdi con una croce nera per ingrandire, il pulsante verde con un trattino per diminuire, o sulla freccia verde per le mappe adiacenti.


METAR-TAF: